Methow, WA (98834)

11:59 AM PST on January 27, 2015 (GMT -0800)
RAWS DOUGLAS INGRAM RIDGE WA US | Change Station
CLOSE
Current Station
Personal Weather Station
Location: Methow, WA
Elevation: 3565 ft
Nearby Weather Stations

Elev 3565 ft 48.12 °N, 120.10 °W | Updated 53 minutes ago

Overcast
Overcast
38 °F
Feels Like 38 °F
N
1
Wind Variable Wind from North
Gusts 6.0 mph

Today
High -- | Low -- °F
--% Chance of Precip.
Yesterday
High -- | Low -- °F
Precip. -- in
7:34 AM 4:52 PM
First Quarter, 57% visible
Pressure 30.08 in
Visibility 9.0 miles
Clouds Overcast 300 ft
Windchill 38 °F
Dew Point 36 °F
Humidity 93%
Rainfall 0.00 in
Snow Depth Not available.
UV 1 out of 12
Pollen 3.30 out of 12
Air Quality Not available.
Flu Activity Not available.
METAR KOMK 271953Z AUTO 00000KT 9SM OVC003 02/01 A3004 RMK AO2 SLP186 T00170011

More Conditions Fewer Conditions

Pressure 30.08 in
Visibility 9.0 miles
Clouds Overcast 300 ft
Windchill 38 °F
Dew Point 36 °F
Humidity 93%
Rainfall 0.00 in
Snow Depth Not available.
UV 1 out of 12
Pollen 3.30 out of 12
Air Quality Not available.
Flu Activity Not available.
METAR KOMK 271953Z AUTO 00000KT 9SM OVC003 02/01 A3004 RMK AO2 SLP186 T00170011

More Conditions Fewer Conditions

10-Day Weather Forecast

Almanac

Astronomy

Jan. 27, 2015 Rise Set
Actual Time
Civil Twilight
Nautical Twilight
Astronomical Twilight
Moon
Length of Visible Light
Length of Day
Tomorrow will be .
, % of the Moon is Illuminated

Today's Extremes

State Highs State Lows

Community

WunderPhotos

Upload Photos

1,790,837 photos uploaded!

WunderBlogs® & News

Nearby

Air Quality

  Air Quality AQ Index Pollutant
Not available.

Snow Depth

Station Depth Elevation

Earthquake Activity

City Distance Mag. Time & Date
Minimum magnitude displayed is 2.5.

Coastal Water Temperatures

Place Temperature

Nearby Weather Stations